sensor_id;sensor_type;location;lat;lon;timestamp;P1;durP1;ratioP1;P2;durP2;ratioP2
76157;SDS011;64907;51.574;6.502;2024-01-10T00:00:07;6.80;;;4.82;;
76157;SDS011;64907;51.574;6.502;2024-01-10T00:02:35;7.53;;;4.75;;
76157;SDS011;64907;51.574;6.502;2024-01-10T00:05:01;7.47;;;4.97;;
76157;SDS011;64907;51.574;6.502;2024-01-10T00:09:54;11.70;;;5.20;;
76157;SDS011;64907;51.574;6.502;2024-01-10T00:14:49;9.55;;;5.57;;
76157;SDS011;64907;51.574;6.502;2024-01-10T00:17:14;8.63;;;5.50;;
76157;SDS011;64907;51.574;6.502;2024-01-10T00:19:39;7.68;;;5.32;;
76157;SDS011;64907;51.574;6.502;2024-01-10T00:22:04;10.45;;;5.78;;
76157;SDS011;64907;51.574;6.502;2024-01-10T00:24:31;10.88;;;6.10;;
76157;SDS011;64907;51.574;6.502;2024-01-10T00:26:56;9.98;;;5.72;;
76157;SDS011;64907;51.574;6.502;2024-01-10T00:29:21;10.43;;;5.30;;
76157;SDS011;64907;51.574;6.502;2024-01-10T00:31:46;8.00;;;5.22;;
76157;SDS011;64907;51.574;6.502;2024-01-10T00:34:12;8.40;;;5.10;;
76157;SDS011;64907;51.574;6.502;2024-01-10T00:39:05;8.63;;;5.53;;
76157;SDS011;64907;51.574;6.502;2024-01-10T00:41:31;8.88;;;5.68;;
76157;SDS011;64907;51.574;6.502;2024-01-10T00:43:56;9.75;;;4.78;;
76157;SDS011;64907;51.574;6.502;2024-01-10T00:46:21;7.95;;;5.50;;
76157;SDS011;64907;51.574;6.502;2024-01-10T00:48:47;8.75;;;4.90;;
76157;SDS011;64907;51.574;6.502;2024-01-10T00:53:40;7.70;;;5.30;;
76157;SDS011;64907;51.574;6.502;2024-01-10T00:56:06;7.75;;;4.97;;
76157;SDS011;64907;51.574;6.502;2024-01-10T00:58:31;8.70;;;5.75;;
76157;SDS011;64907;51.574;6.502;2024-01-10T01:00:56;11.80;;;5.68;;
76157;SDS011;64907;51.574;6.502;2024-01-10T01:03:21;9.98;;;4.85;;
76157;SDS011;64907;51.574;6.502;2024-01-10T01:05:47;8.38;;;4.72;;
76157;SDS011;64907;51.574;6.502;2024-01-10T01:08:12;7.57;;;5.38;;
76157;SDS011;64907;51.574;6.502;2024-01-10T01:10:37;10.52;;;5.78;;
76157;SDS011;64907;51.574;6.502;2024-01-10T01:13:04;11.57;;;5.63;;
76157;SDS011;64907;51.574;6.502;2024-01-10T01:15:30;9.13;;;5.32;;
76157;SDS011;64907;51.574;6.502;2024-01-10T01:17:55;11.85;;;5.65;;
76157;SDS011;64907;51.574;6.502;2024-01-10T01:20:20;9.55;;;5.50;;
76157;SDS011;64907;51.574;6.502;2024-01-10T01:22:45;7.18;;;4.85;;
76157;SDS011;64907;51.574;6.502;2024-01-10T01:25:11;7.57;;;4.78;;
76157;SDS011;64907;51.574;6.502;2024-01-10T01:27:39;7.55;;;4.97;;
76157;SDS011;64907;51.574;6.502;2024-01-10T01:30:04;12.85;;;5.95;;
76157;SDS011;64907;51.574;6.502;2024-01-10T01:32:29;10.90;;;5.78;;
76157;SDS011;64907;51.574;6.502;2024-01-10T01:34:57;9.00;;;5.38;;
76157;SDS011;64907;51.574;6.502;2024-01-10T01:37:22;9.02;;;5.05;;
76157;SDS011;64907;51.574;6.502;2024-01-10T01:39:49;11.32;;;5.45;;
76157;SDS011;64907;51.574;6.502;2024-01-10T01:42:15;8.48;;;5.30;;
76157;SDS011;64907;51.574;6.502;2024-01-10T01:44:40;8.70;;;5.05;;
76157;SDS011;64907;51.574;6.502;2024-01-10T01:47:05;6.30;;;5.32;;
76157;SDS011;64907;51.574;6.502;2024-01-10T01:49:31;8.52;;;5.45;;
76157;SDS011;64907;51.574;6.502;2024-01-10T01:51:56;9.18;;;5.47;;
76157;SDS011;64907;51.574;6.502;2024-01-10T01:54:21;8.80;;;5.03;;
76157;SDS011;64907;51.574;6.502;2024-01-10T01:56:47;9.73;;;5.50;;
76157;SDS011;64907;51.574;6.502;2024-01-10T01:59:13;7.20;;;4.72;;
76157;SDS011;64907;51.574;6.502;2024-01-10T02:01:40;8.18;;;5.03;;
76157;SDS011;64907;51.574;6.502;2024-01-10T02:04:06;11.35;;;5.38;;
76157;SDS011;64907;51.574;6.502;2024-01-10T02:06:34;8.35;;;5.07;;
76157;SDS011;64907;51.574;6.502;2024-01-10T02:08:59;8.05;;;5.45;;
76157;SDS011;64907;51.574;6.502;2024-01-10T02:11:25;9.00;;;5.07;;
76157;SDS011;64907;51.574;6.502;2024-01-10T02:13:50;7.95;;;5.15;;
76157;SDS011;64907;51.574;6.502;2024-01-10T02:18:47;9.15;;;5.20;;
76157;SDS011;64907;51.574;6.502;2024-01-10T02:21:13;9.18;;;5.82;;
76157;SDS011;64907;51.574;6.502;2024-01-10T02:23:38;8.35;;;5.13;;
76157;SDS011;64907;51.574;6.502;2024-01-10T02:26:03;8.55;;;4.78;;
76157;SDS011;64907;51.574;6.502;2024-01-10T02:28:28;8.63;;;5.00;;
76157;SDS011;64907;51.574;6.502;2024-01-10T02:30:54;7.90;;;5.13;;
76157;SDS011;64907;51.574;6.502;2024-01-10T02:33:27;8.48;;;5.05;;
76157;SDS011;64907;51.574;6.502;2024-01-10T02:35:53;7.88;;;4.90;;
76157;SDS011;64907;51.574;6.502;2024-01-10T02:38:18;6.00;;;4.93;;
76157;SDS011;64907;51.574;6.502;2024-01-10T02:40:46;9.82;;;5.88;;
76157;SDS011;64907;51.574;6.502;2024-01-10T02:43:11;9.77;;;5.40;;
76157;SDS011;64907;51.574;6.502;2024-01-10T02:45:36;10.52;;;5.43;;
76157;SDS011;64907;51.574;6.502;2024-01-10T02:48:01;9.13;;;5.82;;
76157;SDS011;64907;51.574;6.502;2024-01-10T02:50:28;8.05;;;5.57;;
76157;SDS011;64907;51.574;6.502;2024-01-10T02:52:53;8.88;;;5.47;;
76157;SDS011;64907;51.574;6.502;2024-01-10T02:55:18;9.23;;;6.10;;
76157;SDS011;64907;51.574;6.502;2024-01-10T02:57:43;8.82;;;4.70;;
76157;SDS011;64907;51.574;6.502;2024-01-10T03:00:08;12.65;;;5.63;;
76157;SDS011;64907;51.574;6.502;2024-01-10T03:02:34;7.57;;;4.95;;
76157;SDS011;64907;51.574;6.502;2024-01-10T03:04:59;8.45;;;5.18;;
76157;SDS011;64907;51.574;6.502;2024-01-10T03:07:25;9.18;;;5.18;;
76157;SDS011;64907;51.574;6.502;2024-01-10T03:09:50;9.27;;;4.50;;
76157;SDS011;64907;51.574;6.502;2024-01-10T03:12:15;6.05;;;4.65;;
76157;SDS011;64907;51.574;6.502;2024-01-10T03:14:40;12.73;;;6.18;;
76157;SDS011;64907;51.574;6.502;2024-01-10T03:17:06;8.45;;;5.22;;
76157;SDS011;64907;51.574;6.502;2024-01-10T03:19:31;8.85;;;5.30;;
76157;SDS011;64907;51.574;6.502;2024-01-10T03:21:56;11.15;;;5.10;;
76157;SDS011;64907;51.574;6.502;2024-01-10T03:24:21;11.48;;;5.70;;
76157;SDS011;64907;51.574;6.502;2024-01-10T03:26:49;7.38;;;5.25;;
76157;SDS011;64907;51.574;6.502;2024-01-10T03:29:14;10.25;;;5.72;;
76157;SDS011;64907;51.574;6.502;2024-01-10T03:31:47;8.70;;;6.03;;
76157;SDS011;64907;51.574;6.502;2024-01-10T03:34:13;8.10;;;5.47;;
76157;SDS011;64907;51.574;6.502;2024-01-10T03:36:39;7.72;;;4.60;;
76157;SDS011;64907;51.574;6.502;2024-01-10T03:39:04;7.00;;;5.47;;
76157;SDS011;64907;51.574;6.502;2024-01-10T03:41:29;12.00;;;5.43;;
76157;SDS011;64907;51.574;6.502;2024-01-10T03:43:54;9.77;;;5.18;;
76157;SDS011;64907;51.574;6.502;2024-01-10T03:46:22;8.98;;;5.70;;
76157;SDS011;64907;51.574;6.502;2024-01-10T03:48:48;13.75;;;5.53;;
76157;SDS011;64907;51.574;6.502;2024-01-10T03:51:13;9.87;;;5.33;;
76157;SDS011;64907;51.574;6.502;2024-01-10T03:53:39;10.50;;;6.10;;
76157;SDS011;64907;51.574;6.502;2024-01-10T03:56:04;12.55;;;5.50;;
76157;SDS011;64907;51.574;6.502;2024-01-10T03:58:30;13.98;;;6.28;;
76157;SDS011;64907;51.574;6.502;2024-01-10T04:00:55;9.50;;;5.93;;
76157;SDS011;64907;51.574;6.502;2024-01-10T04:03:20;9.63;;;5.85;;
76157;SDS011;64907;51.574;6.502;2024-01-10T04:05:45;9.50;;;5.05;;
76157;SDS011;64907;51.574;6.502;2024-01-10T04:08:10;10.70;;;5.60;;
76157;SDS011;64907;51.574;6.502;2024-01-10T04:10:35;9.52;;;5.35;;
76157;SDS011;64907;51.574;6.502;2024-01-10T04:13:01;7.87;;;4.87;;
76157;SDS011;64907;51.574;6.502;2024-01-10T04:15:26;8.80;;;5.57;;
76157;SDS011;64907;51.574;6.502;2024-01-10T04:17:53;13.27;;;5.90;;
76157;SDS011;64907;51.574;6.502;2024-01-10T04:20:18;10.25;;;5.72;;
76157;SDS011;64907;51.574;6.502;2024-01-10T04:22:44;12.02;;;5.97;;
76157;SDS011;64907;51.574;6.502;2024-01-10T04:25:10;9.30;;;6.03;;
76157;SDS011;64907;51.574;6.502;2024-01-10T04:27:36;12.30;;;6.55;;
76157;SDS011;64907;51.574;6.502;2024-01-10T04:30:01;10.98;;;5.47;;
76157;SDS011;64907;51.574;6.502;2024-01-10T04:32:26;10.25;;;5.55;;
76157;SDS011;64907;51.574;6.502;2024-01-10T04:34:51;10.73;;;6.20;;
76157;SDS011;64907;51.574;6.502;2024-01-10T04:37:17;9.27;;;5.18;;
76157;SDS011;64907;51.574;6.502;2024-01-10T04:39:44;10.57;;;5.90;;
76157;SDS011;64907;51.574;6.502;2024-01-10T04:42:12;7.07;;;5.70;;
76157;SDS011;64907;51.574;6.502;2024-01-10T04:44:37;9.73;;;5.38;;
76157;SDS011;64907;51.574;6.502;2024-01-10T04:47:03;10.77;;;5.63;;
76157;SDS011;64907;51.574;6.502;2024-01-10T04:49:28;13.48;;;6.70;;
76157;SDS011;64907;51.574;6.502;2024-01-10T04:51:53;11.00;;;6.13;;
76157;SDS011;64907;51.574;6.502;2024-01-10T04:54:19;9.10;;;6.27;;
76157;SDS011;64907;51.574;6.502;2024-01-10T04:56:44;9.83;;;5.90;;
76157;SDS011;64907;51.574;6.502;2024-01-10T04:59:09;12.07;;;6.82;;
76157;SDS011;64907;51.574;6.502;2024-01-10T05:01:35;12.02;;;6.30;;
76157;SDS011;64907;51.574;6.502;2024-01-10T05:04:02;12.55;;;6.57;;
76157;SDS011;64907;51.574;6.502;2024-01-10T05:06:27;17.23;;;6.70;;
76157;SDS011;64907;51.574;6.502;2024-01-10T05:08:52;9.95;;;5.85;;
76157;SDS011;64907;51.574;6.502;2024-01-10T05:11:20;13.10;;;6.17;;
76157;SDS011;64907;51.574;6.502;2024-01-10T05:13:46;11.50;;;5.77;;
76157;SDS011;64907;51.574;6.502;2024-01-10T05:16:11;14.55;;;6.47;;
76157;SDS011;64907;51.574;6.502;2024-01-10T05:18:37;9.73;;;5.88;;
76157;SDS011;64907;51.574;6.502;2024-01-10T05:21:02;10.47;;;5.77;;
76157;SDS011;64907;51.574;6.502;2024-01-10T05:25:58;9.97;;;6.60;;
76157;SDS011;64907;51.574;6.502;2024-01-10T05:28:23;9.77;;;5.40;;
76157;SDS011;64907;51.574;6.502;2024-01-10T05:30:50;11.17;;;7.40;;
76157;SDS011;64907;51.574;6.502;2024-01-10T05:33:15;11.18;;;6.13;;
76157;SDS011;64907;51.574;6.502;2024-01-10T05:35:40;10.80;;;6.20;;
76157;SDS011;64907;51.574;6.502;2024-01-10T05:38:21;15.60;;;6.93;;
76157;SDS011;64907;51.574;6.502;2024-01-10T05:40:46;11.57;;;6.10;;
76157;SDS011;64907;51.574;6.502;2024-01-10T05:43:11;11.47;;;6.47;;
76157;SDS011;64907;51.574;6.502;2024-01-10T05:45:38;10.87;;;6.33;;
76157;SDS011;64907;51.574;6.502;2024-01-10T05:48:06;10.60;;;6.00;;
76157;SDS011;64907;51.574;6.502;2024-01-10T05:53:00;12.20;;;6.57;;
76157;SDS011;64907;51.574;6.502;2024-01-10T05:55:26;11.13;;;6.27;;
76157;SDS011;64907;51.574;6.502;2024-01-10T05:57:51;12.80;;;6.50;;
76157;SDS011;64907;51.574;6.502;2024-01-10T06:00:16;12.43;;;7.07;;
76157;SDS011;64907;51.574;6.502;2024-01-10T06:02:42;11.70;;;6.07;;
76157;SDS011;64907;51.574;6.502;2024-01-10T06:07:52;12.80;;;6.55;;
76157;SDS011;64907;51.574;6.502;2024-01-10T06:10:17;12.25;;;5.80;;
76157;SDS011;64907;51.574;6.502;2024-01-10T06:12:42;16.52;;;6.40;;
76157;SDS011;64907;51.574;6.502;2024-01-10T06:15:08;10.25;;;5.63;;
76157;SDS011;64907;51.574;6.502;2024-01-10T06:17:36;15.00;;;6.05;;
76157;SDS011;64907;51.574;6.502;2024-01-10T06:20:01;12.43;;;6.40;;
76157;SDS011;64907;51.574;6.502;2024-01-10T06:22:28;13.75;;;6.07;;
76157;SDS011;64907;51.574;6.502;2024-01-10T06:24:53;11.03;;;6.17;;
76157;SDS011;64907;51.574;6.502;2024-01-10T06:27:19;11.97;;;6.83;;
76157;SDS011;64907;51.574;6.502;2024-01-10T06:29:44;15.60;;;7.27;;
76157;SDS011;64907;51.574;6.502;2024-01-10T06:34:45;13.67;;;6.33;;
76157;SDS011;64907;51.574;6.502;2024-01-10T06:37:10;10.90;;;6.53;;
76157;SDS011;64907;51.574;6.502;2024-01-10T06:39:35;13.80;;;6.83;;
76157;SDS011;64907;51.574;6.502;2024-01-10T06:42:04;13.98;;;7.57;;
76157;SDS011;64907;51.574;6.502;2024-01-10T06:44:31;11.07;;;7.00;;
76157;SDS011;64907;51.574;6.502;2024-01-10T06:46:56;12.07;;;6.88;;
76157;SDS011;64907;51.574;6.502;2024-01-10T06:49:21;12.00;;;7.13;;
76157;SDS011;64907;51.574;6.502;2024-01-10T06:51:46;11.00;;;6.87;;
76157;SDS011;64907;51.574;6.502;2024-01-10T06:54:12;15.33;;;8.70;;
76157;SDS011;64907;51.574;6.502;2024-01-10T06:56:38;12.67;;;7.00;;
76157;SDS011;64907;51.574;6.502;2024-01-10T06:59:04;15.70;;;8.53;;
76157;SDS011;64907;51.574;6.502;2024-01-10T07:01:31;14.97;;;8.53;;
76157;SDS011;64907;51.574;6.502;2024-01-10T07:03:56;15.23;;;8.63;;
76157;SDS011;64907;51.574;6.502;2024-01-10T07:06:21;12.90;;;7.23;;
76157;SDS011;64907;51.574;6.502;2024-01-10T07:08:49;12.00;;;7.27;;
76157;SDS011;64907;51.574;6.502;2024-01-10T07:11:18;16.77;;;7.82;;
76157;SDS011;64907;51.574;6.502;2024-01-10T07:13:44;14.77;;;7.90;;
76157;SDS011;64907;51.574;6.502;2024-01-10T07:16:13;12.00;;;6.95;;
76157;SDS011;64907;51.574;6.502;2024-01-10T07:18:43;15.00;;;7.80;;
76157;SDS011;64907;51.574;6.502;2024-01-10T07:21:09;12.23;;;7.35;;
76157;SDS011;64907;51.574;6.502;2024-01-10T07:23:35;14.60;;;8.10;;
76157;SDS011;64907;51.574;6.502;2024-01-10T07:28:41;16.97;;;8.47;;
76157;SDS011;64907;51.574;6.502;2024-01-10T07:31:06;18.70;;;7.97;;
76157;SDS011;64907;51.574;6.502;2024-01-10T07:33:32;18.40;;;8.73;;
76157;SDS011;64907;51.574;6.502;2024-01-10T07:38:33;17.00;;;7.93;;
76157;SDS011;64907;51.574;6.502;2024-01-10T07:43:28;13.77;;;7.80;;
76157;SDS011;64907;51.574;6.502;2024-01-10T07:45:53;19.60;;;8.82;;
76157;SDS011;64907;51.574;6.502;2024-01-10T07:48:24;16.63;;;8.25;;
76157;SDS011;64907;51.574;6.502;2024-01-10T07:50:50;16.38;;;8.63;;
76157;SDS011;64907;51.574;6.502;2024-01-10T07:53:15;15.05;;;8.40;;
76157;SDS011;64907;51.574;6.502;2024-01-10T07:55:44;17.05;;;8.88;;
76157;SDS011;64907;51.574;6.502;2024-01-10T07:58:09;17.23;;;8.70;;
76157;SDS011;64907;51.574;6.502;2024-01-10T08:00:34;18.30;;;8.57;;
76157;SDS011;64907;51.574;6.502;2024-01-10T08:03:01;19.50;;;8.27;;
76157;SDS011;64907;51.574;6.502;2024-01-10T08:05:26;16.37;;;8.37;;
76157;SDS011;64907;51.574;6.502;2024-01-10T08:07:51;14.60;;;8.10;;
76157;SDS011;64907;51.574;6.502;2024-01-10T08:10:17;14.20;;;8.33;;
76157;SDS011;64907;51.574;6.502;2024-01-10T08:12:42;16.58;;;8.38;;
76157;SDS011;64907;51.574;6.502;2024-01-10T08:15:07;18.77;;;8.27;;
76157;SDS011;64907;51.574;6.502;2024-01-10T08:17:34;21.98;;;9.15;;
76157;SDS011;64907;51.574;6.502;2024-01-10T08:19:59;24.10;;;9.77;;
76157;SDS011;64907;51.574;6.502;2024-01-10T08:22:29;20.47;;;9.60;;
76157;SDS011;64907;51.574;6.502;2024-01-10T08:24:54;16.77;;;8.70;;
76157;SDS011;64907;51.574;6.502;2024-01-10T08:27:20;16.30;;;8.95;;
76157;SDS011;64907;51.574;6.502;2024-01-10T08:29:46;14.63;;;9.30;;
76157;SDS011;64907;51.574;6.502;2024-01-10T08:32:11;18.90;;;9.40;;
76157;SDS011;64907;51.574;6.502;2024-01-10T08:34:36;20.23;;;9.27;;
76157;SDS011;64907;51.574;6.502;2024-01-10T08:37:01;16.85;;;8.93;;
76157;SDS011;64907;51.574;6.502;2024-01-10T08:39:27;16.27;;;9.20;;
76157;SDS011;64907;51.574;6.502;2024-01-10T08:41:53;16.85;;;8.98;;
76157;SDS011;64907;51.574;6.502;2024-01-10T08:44:18;16.30;;;10.27;;
76157;SDS011;64907;51.574;6.502;2024-01-10T08:46:43;23.67;;;10.05;;
76157;SDS011;64907;51.574;6.502;2024-01-10T08:49:09;20.15;;;10.02;;
76157;SDS011;64907;51.574;6.502;2024-01-10T08:54:11;20.88;;;9.23;;
76157;SDS011;64907;51.574;6.502;2024-01-10T08:56:41;18.13;;;9.18;;
76157;SDS011;64907;51.574;6.502;2024-01-10T08:59:06;15.65;;;8.88;;
76157;SDS011;64907;51.574;6.502;2024-01-10T09:04:01;18.27;;;9.77;;
76157;SDS011;64907;51.574;6.502;2024-01-10T09:08:56;20.63;;;9.85;;
76157;SDS011;64907;51.574;6.502;2024-01-10T09:11:21;17.35;;;10.38;;
76157;SDS011;64907;51.574;6.502;2024-01-10T09:13:46;15.98;;;8.85;;
76157;SDS011;64907;51.574;6.502;2024-01-10T09:16:11;16.02;;;9.18;;
76157;SDS011;64907;51.574;6.502;2024-01-10T09:18:37;17.00;;;9.52;;
76157;SDS011;64907;51.574;6.502;2024-01-10T09:21:03;18.67;;;10.25;;
76157;SDS011;64907;51.574;6.502;2024-01-10T09:23:29;17.38;;;10.50;;
76157;SDS011;64907;51.574;6.502;2024-01-10T09:25:54;21.83;;;10.32;;
76157;SDS011;64907;51.574;6.502;2024-01-10T09:28:19;17.00;;;9.40;;
76157;SDS011;64907;51.574;6.502;2024-01-10T09:30:44;19.02;;;9.55;;
76157;SDS011;64907;51.574;6.502;2024-01-10T09:33:09;17.58;;;9.52;;
76157;SDS011;64907;51.574;6.502;2024-01-10T09:35:35;18.88;;;10.57;;
76157;SDS011;64907;51.574;6.502;2024-01-10T09:38:00;19.30;;;9.85;;
76157;SDS011;64907;51.574;6.502;2024-01-10T09:42:54;21.60;;;11.10;;
76157;SDS011;64907;51.574;6.502;2024-01-10T09:45:20;18.88;;;10.05;;
76157;SDS011;64907;51.574;6.502;2024-01-10T09:47:46;20.38;;;11.05;;
76157;SDS011;64907;51.574;6.502;2024-01-10T09:50:14;23.73;;;11.52;;
76157;SDS011;64907;51.574;6.502;2024-01-10T09:52:58;21.08;;;10.55;;
76157;SDS011;64907;51.574;6.502;2024-01-10T09:55:26;20.73;;;10.32;;
76157;SDS011;64907;51.574;6.502;2024-01-10T09:57:53;20.13;;;10.43;;
76157;SDS011;64907;51.574;6.502;2024-01-10T10:00:19;20.20;;;10.52;;
76157;SDS011;64907;51.574;6.502;2024-01-10T10:02:45;22.00;;;10.77;;
76157;SDS011;64907;51.574;6.502;2024-01-10T10:10:12;21.27;;;10.50;;
76157;SDS011;64907;51.574;6.502;2024-01-10T10:15:22;21.20;;;11.25;;
76157;SDS011;64907;51.574;6.502;2024-01-10T10:17:48;21.38;;;11.13;;
76157;SDS011;64907;51.574;6.502;2024-01-10T10:22:43;21.25;;;10.75;;
76157;SDS011;64907;51.574;6.502;2024-01-10T10:25:22;18.50;;;10.73;;
76157;SDS011;64907;51.574;6.502;2024-01-10T10:27:50;19.48;;;10.77;;
76157;SDS011;64907;51.574;6.502;2024-01-10T10:30:17;18.67;;;10.35;;
76157;SDS011;64907;51.574;6.502;2024-01-10T10:32:42;22.67;;;12.10;;
76157;SDS011;64907;51.574;6.502;2024-01-10T10:35:07;21.25;;;11.38;;
76157;SDS011;64907;51.574;6.502;2024-01-10T10:37:34;20.13;;;11.55;;
76157;SDS011;64907;51.574;6.502;2024-01-10T10:39:59;21.08;;;11.98;;
76157;SDS011;64907;51.574;6.502;2024-01-10T10:42:24;20.60;;;11.55;;
76157;SDS011;64907;51.574;6.502;2024-01-10T10:44:50;20.65;;;11.30;;
76157;SDS011;64907;51.574;6.502;2024-01-10T10:47:16;22.52;;;12.07;;
76157;SDS011;64907;51.574;6.502;2024-01-10T10:49:47;19.98;;;11.18;;
76157;SDS011;64907;51.574;6.502;2024-01-10T10:52:12;20.90;;;11.27;;
76157;SDS011;64907;51.574;6.502;2024-01-10T10:54:38;22.75;;;11.93;;
76157;SDS011;64907;51.574;6.502;2024-01-10T10:57:04;19.10;;;11.65;;
76157;SDS011;64907;51.574;6.502;2024-01-10T10:59:29;20.45;;;11.38;;
76157;SDS011;64907;51.574;6.502;2024-01-10T11:01:59;22.45;;;11.82;;
76157;SDS011;64907;51.574;6.502;2024-01-10T11:04:25;22.55;;;11.15;;
76157;SDS011;64907;51.574;6.502;2024-01-10T11:06:50;20.27;;;11.70;;
76157;SDS011;64907;51.574;6.502;2024-01-10T11:09:15;24.85;;;12.52;;
76157;SDS011;64907;51.574;6.502;2024-01-10T11:22:57;20.48;;;10.68;;
76157;SDS011;64907;51.574;6.502;2024-01-10T11:25:26;20.77;;;11.15;;
76157;SDS011;64907;51.574;6.502;2024-01-10T11:27:54;21.65;;;12.00;;
76157;SDS011;64907;51.574;6.502;2024-01-10T11:30:48;22.05;;;11.60;;
76157;SDS011;64907;51.574;6.502;2024-01-10T11:33:20;24.05;;;11.57;;
76157;SDS011;64907;51.574;6.502;2024-01-10T11:41:35;19.80;;;12.32;;
76157;SDS011;64907;51.574;6.502;2024-01-10T11:46:43;22.25;;;11.88;;
76157;SDS011;64907;51.574;6.502;2024-01-10T11:51:58;21.52;;;13.00;;
76157;SDS011;64907;51.574;6.502;2024-01-10T11:54:39;19.00;;;11.02;;
76157;SDS011;64907;51.574;6.502;2024-01-10T11:57:21;26.40;;;12.40;;
76157;SDS011;64907;51.574;6.502;2024-01-10T11:59:47;21.75;;;12.68;;
76157;SDS011;64907;51.574;6.502;2024-01-10T12:02:14;22.70;;;11.90;;
76157;SDS011;64907;51.574;6.502;2024-01-10T12:04:40;21.05;;;12.55;;
76157;SDS011;64907;51.574;6.502;2024-01-10T12:07:06;21.83;;;12.35;;
76157;SDS011;64907;51.574;6.502;2024-01-10T12:09:32;21.15;;;11.82;;
76157;SDS011;64907;51.574;6.502;2024-01-10T12:11:58;23.23;;;13.20;;
76157;SDS011;64907;51.574;6.502;2024-01-10T12:14:23;21.27;;;12.15;;
76157;SDS011;64907;51.574;6.502;2024-01-10T12:16:48;20.67;;;11.32;;
76157;SDS011;64907;51.574;6.502;2024-01-10T12:19:17;20.35;;;11.98;;
76157;SDS011;64907;51.574;6.502;2024-01-10T12:21:42;25.73;;;12.40;;
76157;SDS011;64907;51.574;6.502;2024-01-10T12:24:08;21.50;;;12.15;;
76157;SDS011;64907;51.574;6.502;2024-01-10T12:26:33;23.63;;;12.55;;
76157;SDS011;64907;51.574;6.502;2024-01-10T12:28:58;21.13;;;13.20;;
76157;SDS011;64907;51.574;6.502;2024-01-10T12:31:26;23.08;;;12.30;;
76157;SDS011;64907;51.574;6.502;2024-01-10T12:33:52;21.48;;;11.88;;
76157;SDS011;64907;51.574;6.502;2024-01-10T12:36:17;20.58;;;12.60;;
76157;SDS011;64907;51.574;6.502;2024-01-10T12:38:43;22.83;;;12.55;;
76157;SDS011;64907;51.574;6.502;2024-01-10T12:41:09;21.05;;;11.45;;
76157;SDS011;64907;51.574;6.502;2024-01-10T12:43:35;21.13;;;12.52;;
76157;SDS011;64907;51.574;6.502;2024-01-10T12:46:11;20.35;;;11.77;;
76157;SDS011;64907;51.574;6.502;2024-01-10T12:48:36;22.80;;;12.45;;
76157;SDS011;64907;51.574;6.502;2024-01-10T12:53:41;24.13;;;11.98;;
76157;SDS011;64907;51.574;6.502;2024-01-10T12:56:07;19.20;;;11.38;;
76157;SDS011;64907;51.574;6.502;2024-01-10T12:58:33;21.95;;;11.95;;
76157;SDS011;64907;51.574;6.502;2024-01-10T13:01:01;22.75;;;12.90;;
76157;SDS011;64907;51.574;6.502;2024-01-10T13:03:26;20.42;;;11.23;;
76157;SDS011;64907;51.574;6.502;2024-01-10T13:05:53;19.55;;;11.52;;
76157;SDS011;64907;51.574;6.502;2024-01-10T13:08:18;20.63;;;11.25;;
76157;SDS011;64907;51.574;6.502;2024-01-10T13:10:46;19.30;;;12.00;;
76157;SDS011;64907;51.574;6.502;2024-01-10T13:13:12;21.48;;;12.38;;
76157;SDS011;64907;51.574;6.502;2024-01-10T13:15:38;21.65;;;11.13;;
76157;SDS011;64907;51.574;6.502;2024-01-10T13:20:34;16.00;;;10.85;;
76157;SDS011;64907;51.574;6.502;2024-01-10T13:22:59;16.47;;;10.93;;
76157;SDS011;64907;51.574;6.502;2024-01-10T13:25:25;24.08;;;11.43;;
76157;SDS011;64907;51.574;6.502;2024-01-10T13:27:50;18.75;;;11.23;;
76157;SDS011;64907;51.574;6.502;2024-01-10T13:30:23;20.33;;;11.30;;
76157;SDS011;64907;51.574;6.502;2024-01-10T13:32:48;21.38;;;11.85;;
76157;SDS011;64907;51.574;6.502;2024-01-10T13:35:13;22.55;;;11.40;;
76157;SDS011;64907;51.574;6.502;2024-01-10T13:37:39;20.90;;;11.77;;
76157;SDS011;64907;51.574;6.502;2024-01-10T13:40:04;19.83;;;11.57;;
76157;SDS011;64907;51.574;6.502;2024-01-10T13:42:32;19.70;;;11.40;;
76157;SDS011;64907;51.574;6.502;2024-01-10T13:44:59;21.33;;;11.63;;
76157;SDS011;64907;51.574;6.502;2024-01-10T13:47:25;22.15;;;11.75;;
76157;SDS011;64907;51.574;6.502;2024-01-10T13:49:50;23.40;;;12.70;;
76157;SDS011;64907;51.574;6.502;2024-01-10T13:52:15;24.42;;;12.13;;
76157;SDS011;64907;51.574;6.502;2024-01-10T13:54:41;24.38;;;11.25;;
76157;SDS011;64907;51.574;6.502;2024-01-10T13:57:07;21.30;;;11.18;;
76157;SDS011;64907;51.574;6.502;2024-01-10T13:59:32;20.23;;;11.48;;
76157;SDS011;64907;51.574;6.502;2024-01-10T14:01:58;18.75;;;10.60;;
76157;SDS011;64907;51.574;6.502;2024-01-10T14:04:24;21.15;;;10.50;;
76157;SDS011;64907;51.574;6.502;2024-01-10T14:06:49;19.83;;;10.82;;
76157;SDS011;64907;51.574;6.502;2024-01-10T14:09:15;24.65;;;12.27;;
76157;SDS011;64907;51.574;6.502;2024-01-10T14:11:42;19.88;;;11.48;;
76157;SDS011;64907;51.574;6.502;2024-01-10T14:14:09;21.30;;;12.35;;
76157;SDS011;64907;51.574;6.502;2024-01-10T14:16:34;22.67;;;12.27;;
76157;SDS011;64907;51.574;6.502;2024-01-10T14:19:02;26.85;;;12.27;;
76157;SDS011;64907;51.574;6.502;2024-01-10T14:21:27;25.00;;;12.27;;
76157;SDS011;64907;51.574;6.502;2024-01-10T14:23:52;22.05;;;11.52;;
76157;SDS011;64907;51.574;6.502;2024-01-10T14:28:47;20.95;;;11.93;;
76157;SDS011;64907;51.574;6.502;2024-01-10T14:31:12;22.73;;;12.60;;
76157;SDS011;64907;51.574;6.502;2024-01-10T14:33:39;24.00;;;12.23;;
76157;SDS011;64907;51.574;6.502;2024-01-10T14:36:05;24.42;;;12.65;;
76157;SDS011;64907;51.574;6.502;2024-01-10T14:38:31;26.88;;;12.23;;
76157;SDS011;64907;51.574;6.502;2024-01-10T14:41:00;18.67;;;11.48;;
76157;SDS011;64907;51.574;6.502;2024-01-10T14:43:25;23.35;;;12.45;;
76157;SDS011;64907;51.574;6.502;2024-01-10T14:45:50;24.73;;;13.00;;
76157;SDS011;64907;51.574;6.502;2024-01-10T14:50:45;21.45;;;11.88;;
76157;SDS011;64907;51.574;6.502;2024-01-10T14:53:11;21.90;;;12.25;;
76157;SDS011;64907;51.574;6.502;2024-01-10T14:55:36;21.90;;;12.10;;
76157;SDS011;64907;51.574;6.502;2024-01-10T14:58:02;21.77;;;12.27;;
76157;SDS011;64907;51.574;6.502;2024-01-10T15:00:28;21.95;;;12.38;;
76157;SDS011;64907;51.574;6.502;2024-01-10T15:02:53;21.17;;;12.10;;
76157;SDS011;64907;51.574;6.502;2024-01-10T15:07:57;30.50;;;11.75;;
76157;SDS011;64907;51.574;6.502;2024-01-10T15:10:22;27.85;;;12.27;;
76157;SDS011;64907;51.574;6.502;2024-01-10T15:12:47;24.98;;;12.55;;
76157;SDS011;64907;51.574;6.502;2024-01-10T15:15:13;22.10;;;12.60;;
76157;SDS011;64907;51.574;6.502;2024-01-10T15:17:39;25.02;;;13.70;;
76157;SDS011;64907;51.574;6.502;2024-01-10T15:20:05;23.48;;;12.10;;
76157;SDS011;64907;51.574;6.502;2024-01-10T15:22:31;22.02;;;11.95;;
76157;SDS011;64907;51.574;6.502;2024-01-10T15:24:58;19.40;;;11.27;;
76157;SDS011;64907;51.574;6.502;2024-01-10T15:27:24;25.85;;;12.77;;
76157;SDS011;64907;51.574;6.502;2024-01-10T15:29:50;24.20;;;12.02;;
76157;SDS011;64907;51.574;6.502;2024-01-10T15:32:15;21.10;;;11.93;;
76157;SDS011;64907;51.574;6.502;2024-01-10T15:34:41;21.02;;;11.80;;
76157;SDS011;64907;51.574;6.502;2024-01-10T15:37:06;19.40;;;11.90;;
76157;SDS011;64907;51.574;6.502;2024-01-10T15:39:31;24.98;;;12.18;;
76157;SDS011;64907;51.574;6.502;2024-01-10T15:41:56;23.08;;;11.77;;
76157;SDS011;64907;51.574;6.502;2024-01-10T15:44:21;24.40;;;12.45;;
76157;SDS011;64907;51.574;6.502;2024-01-10T15:46:47;22.63;;;12.27;;
76157;SDS011;64907;51.574;6.502;2024-01-10T15:51:41;20.67;;;12.23;;
76157;SDS011;64907;51.574;6.502;2024-01-10T15:54:07;28.08;;;13.02;;